Pagrindinis puslapis
METAR-TAF:

METAR-TAF

Oro uostai :

Hassi Messaoud, Alžyras

platuma: 31-40N, ilguma: 006-09E, Aukštis: 142 m

Dabartinis oras

Ataskaita buvo paskelbta 1 valandą ir 37 minutes, ne 23:00 UTC
Vėjas 5 kt iš Rytų
Temperatūra 37°C
Drėgmė 13%
Slėgis 1013 hPa
Matomumas 10 km arba daugiau
nėra debesų žemiau 1500 m ir nėra kamuolinių lietaus debesų

METAR: DAUH 182300Z 09005KT CAVOK 37/04 Q1013

Laikas: 01:37 (00:37 UTC)

Prognozė

Ataskaita buvo paskelbta 1 valandą ir 37 minutes, ne 23:00 UTC
Prognozė galioja nuo 19 metu 00 UTC su 19 metu 24 UTC
Vėjas 8 kt iš Rytų
Matomumas 10 km arba daugiau
nėra debesų žemiau 1500 m ir nėra kamuolinių lietaus debesų

TAF: DAUH 182300Z 1900/1924 10008KT CAVOK

Orai ataskaitas ir orų prognozės (METAR, TAF).

turimą stotys yra geltonos ir raudonos taškus žemėlapyje.

Perkelti pele per norėdami pamatyti stoties vardą.

Tada spustelėkite, norėdami matyti oro stebėjimo ir prognozės.

Norėdami pakeisti žemėlapį: spustelėkite ant žalios mygtukų su juodo kryžiaus žemyn,; žalią mygtuką su brūkšneliu, jei norite nutolinti; arba žalių rodyklių gretimoms žemėlapius.


METAR-TAF: